createdAt,value
2019-05-21T00:02:15.264Z,9.40
2019-05-21T00:04:49.200Z,8.50
2019-05-21T00:07:20.885Z,7.83
2019-05-21T00:09:54.212Z,8.17
2019-05-21T00:12:29.950Z,8.80
2019-05-21T00:15:02.836Z,9.17
2019-05-21T00:17:36.642Z,10.23
2019-05-21T00:20:10.490Z,9.73
2019-05-21T00:22:44.161Z,9.37
2019-05-21T00:25:17.507Z,9.60
2019-05-21T00:27:49.225Z,9.43
2019-05-21T00:30:58.850Z,8.90
2019-05-21T00:34:06.214Z,10.43
2019-05-21T00:37:20.498Z,10.63
2019-05-21T00:40:28.644Z,11.93
2019-05-21T00:43:01.565Z,12.03
2019-05-21T00:45:34.627Z,10.57
2019-05-21T00:48:08.194Z,9.97
2019-05-21T00:50:40.957Z,9.87
2019-05-21T00:53:13.037Z,9.13
2019-05-21T00:55:49.681Z,9.47
2019-05-21T00:58:21.444Z,11.73
2019-05-21T01:00:54.807Z,9.87
2019-05-21T01:03:27.218Z,10.30
2019-05-21T01:06:01.960Z,9.93
2019-05-21T01:08:36.546Z,9.93
2019-05-21T01:11:10.915Z,10.87
2019-05-21T01:13:46.544Z,10.43
2019-05-21T01:16:18.703Z,9.78
2019-05-21T01:18:51.104Z,11.60
2019-05-21T01:21:24.599Z,11.07
2019-05-21T01:23:57.487Z,10.43
2019-05-21T01:26:29.807Z,10.77
2019-05-21T01:29:07.639Z,13.87
2019-05-21T01:31:39.288Z,11.03
2019-05-21T01:34:12.219Z,10.63
2019-05-21T01:36:45.167Z,12.13
2019-05-21T01:39:17.684Z,12.35
2019-05-21T01:41:49.641Z,11.17
2019-05-21T01:44:24.949Z,12.28
2019-05-21T01:46:58.984Z,11.07
2019-05-21T01:49:31.767Z,11.10
2019-05-21T01:52:03.878Z,10.90
2019-05-21T01:54:36.926Z,11.90
2019-05-21T01:57:08.659Z,13.43
2019-05-21T01:59:41.461Z,12.00
2019-05-21T02:02:14.840Z,11.57
2019-05-21T02:04:49.025Z,11.80
2019-05-21T02:07:21.279Z,11.20
2019-05-21T02:09:59.724Z,12.40
2019-05-21T02:12:32.102Z,12.17
2019-05-21T02:15:08.866Z,11.77
2019-05-21T02:17:43.160Z,11.13
2019-05-21T02:20:16.899Z,11.53
2019-05-21T02:22:50.074Z,11.03
2019-05-21T02:25:22.716Z,10.43
2019-05-21T02:27:55.059Z,11.67
2019-05-21T02:30:29.818Z,10.50
2019-05-21T02:33:02.704Z,11.60
2019-05-21T02:35:52.865Z,10.63
2019-05-21T02:38:10.451Z,11.73
2019-05-21T02:40:46.069Z,10.87
2019-05-21T02:43:18.069Z,13.53
2019-05-21T02:45:50.118Z,10.97
2019-05-21T02:48:22.870Z,13.28
2019-05-21T02:50:54.598Z,10.67
2019-05-21T02:53:27.034Z,10.90
2019-05-21T02:55:59.743Z,12.37
2019-05-21T02:58:32.403Z,15.27
2019-05-21T03:01:27.895Z,12.37
2019-05-21T03:03:59.870Z,13.63
2019-05-21T03:06:32.358Z,11.00
2019-05-21T03:09:09.987Z,10.10
2019-05-21T03:11:44.385Z,11.90
2019-05-21T03:14:19.083Z,11.07
2019-05-21T03:16:52.395Z,12.10
2019-05-21T03:19:26.763Z,12.50
2019-05-21T03:22:00.636Z,11.40
2019-05-21T03:24:33.980Z,13.53
2019-05-21T03:27:07.771Z,9.05
2019-05-21T03:29:41.121Z,9.80
2019-05-21T03:32:14.359Z,9.23
2019-05-21T03:34:47.588Z,10.23
2019-05-21T03:37:19.202Z,10.40
2019-05-21T03:39:51.510Z,10.60
2019-05-21T03:42:23.959Z,10.20
2019-05-21T03:45:00.531Z,10.10
2019-05-21T03:47:33.956Z,10.83
2019-05-21T03:50:07.894Z,11.22
2019-05-21T03:52:42.101Z,11.20
2019-05-21T03:55:16.775Z,10.03
2019-05-21T03:57:50.736Z,11.80
2019-05-21T04:00:25.951Z,13.70
2019-05-21T04:03:00.232Z,12.93
2019-05-21T04:05:32.179Z,10.93
2019-05-21T04:08:04.580Z,13.43
2019-05-21T04:10:38.287Z,10.77
2019-05-21T04:13:10.840Z,12.13
2019-05-21T04:16:17.002Z,11.43
2019-05-21T04:19:03.119Z,15.03
2019-05-21T04:21:38.822Z,25.77
2019-05-21T04:24:13.819Z,12.60
2019-05-21T04:26:47.218Z,14.97
2019-05-21T04:29:21.077Z,11.80
2019-05-21T04:31:54.711Z,15.13
2019-05-21T04:34:30.256Z,14.77
2019-05-21T04:37:10.508Z,15.03
2019-05-21T04:39:39.454Z,13.90
2019-05-21T04:42:14.829Z,14.50
2019-05-21T04:44:47.168Z,13.93
2019-05-21T04:47:23.861Z,11.93
2019-05-21T04:49:57.554Z,19.23
2019-05-21T04:52:30.654Z,12.10
2019-05-21T04:55:06.563Z,14.53
2019-05-21T04:57:40.474Z,12.23
2019-05-21T05:00:13.814Z,12.03
2019-05-21T05:02:48.248Z,10.30
2019-05-21T05:05:22.057Z,10.00
2019-05-21T05:07:53.665Z,9.73
2019-05-21T05:10:26.229Z,8.93
2019-05-21T05:12:57.851Z,9.57
2019-05-21T05:15:31.924Z,10.13
2019-05-21T05:18:03.532Z,10.93
2019-05-21T05:20:36.429Z,10.67
2019-05-21T05:23:08.366Z,10.50
2019-05-21T05:25:40.127Z,10.83
2019-05-21T05:28:11.806Z,14.23
2019-05-21T05:30:43.657Z,14.23
2019-05-21T05:33:16.319Z,14.23
2019-05-21T05:35:48.244Z,12.10
2019-05-21T05:38:20.538Z,12.60
2019-05-21T05:40:52.399Z,11.37
2019-05-21T05:43:24.397Z,12.17
2019-05-21T05:45:56.543Z,12.17
2019-05-21T05:48:29.417Z,12.67
2019-05-21T05:51:03.256Z,11.27
2019-05-21T05:53:53.978Z,10.03
2019-05-21T05:56:25.706Z,9.07
2019-05-21T05:58:58.416Z,12.20
2019-05-21T06:01:33.016Z,9.07
2019-05-21T06:04:05.536Z,9.20
2019-05-21T06:06:37.307Z,9.93
2019-05-21T06:09:09.255Z,12.70
2019-05-21T06:11:41.193Z,14.03
2019-05-21T06:14:13.096Z,11.12
2019-05-21T06:16:45.226Z,10.80
2019-05-21T06:19:17.870Z,11.03
2019-05-21T06:21:49.793Z,9.80
2019-05-21T06:24:21.974Z,11.30
2019-05-21T06:26:53.920Z,10.83
2019-05-21T06:29:26.023Z,9.97
2019-05-21T06:31:58.805Z,9.77
2019-05-21T06:34:32.290Z,10.33
2019-05-21T06:37:05.201Z,11.03
2019-05-21T06:39:37.413Z,10.77
2019-05-21T06:42:10.660Z,9.73
2019-05-21T06:44:42.931Z,11.83
2019-05-21T06:47:14.938Z,10.93
2019-05-21T06:49:51.564Z,11.08
2019-05-21T06:52:24.336Z,11.60
2019-05-21T06:54:56.630Z,11.77
2019-05-21T06:57:29.209Z,8.07
2019-05-21T07:00:03.049Z,8.30
2019-05-21T07:02:35.595Z,11.27
2019-05-21T07:05:08.535Z,10.07
2019-05-21T07:07:40.933Z,8.37
2019-05-21T07:10:15.157Z,8.63
2019-05-21T07:12:47.936Z,8.20
2019-05-21T07:15:20.369Z,9.20
2019-05-21T07:17:55.026Z,8.23
2019-05-21T07:20:27.304Z,7.67
2019-05-21T07:23:00.271Z,7.97
2019-05-21T07:25:33.355Z,8.43
2019-05-21T07:28:08.912Z,8.53
2019-05-21T07:30:40.898Z,10.70
2019-05-21T07:33:12.786Z,14.78
2019-05-21T07:35:47.274Z,7.33
2019-05-21T07:38:20.979Z,7.30
2019-05-21T07:40:53.049Z,9.13
2019-05-21T07:43:25.368Z,9.83
2019-05-21T07:45:58.515Z,9.23
2019-05-21T07:48:31.184Z,9.45
2019-05-21T07:51:03.121Z,8.93
2019-05-21T07:53:35.684Z,8.43
2019-05-21T07:56:10.432Z,9.73
2019-05-21T07:58:43.379Z,12.83
2019-05-21T08:01:20.550Z,8.30
2019-05-21T08:03:55.148Z,8.60
2019-05-21T08:06:29.750Z,9.33
2019-05-21T08:09:13.418Z,7.93
2019-05-21T08:11:39.408Z,12.90
2019-05-21T08:14:12.770Z,8.10
2019-05-21T08:16:45.471Z,9.20
2019-05-21T08:19:17.972Z,8.80
2019-05-21T08:21:50.542Z,6.70
2019-05-21T08:24:23.738Z,6.87
2019-05-21T08:26:56.700Z,7.23
2019-05-21T08:29:28.544Z,5.63
2019-05-21T08:32:01.174Z,7.87
2019-05-21T08:34:34.007Z,6.30
2019-05-21T08:37:06.768Z,6.63
2019-05-21T08:39:38.997Z,7.13
2019-05-21T08:42:10.581Z,8.47
2019-05-21T08:44:42.642Z,9.93
2019-05-21T08:47:15.033Z,6.03
2019-05-21T08:49:46.637Z,11.07
2019-05-21T08:52:18.880Z,8.68
2019-05-21T08:54:51.428Z,7.17
2019-05-21T08:57:23.237Z,19.15
2019-05-21T08:59:55.793Z,15.60
2019-05-21T09:02:27.555Z,13.27
2019-05-21T09:05:00.179Z,4.10
2019-05-21T09:07:32.102Z,4.72
2019-05-21T09:10:04.498Z,3.63
2019-05-21T09:12:36.308Z,5.33
2019-05-21T09:15:10.250Z,4.33
2019-05-21T09:17:42.485Z,3.03
2019-05-21T09:20:16.023Z,3.50
2019-05-21T09:22:48.295Z,2.87
2019-05-21T09:25:21.161Z,3.73
2019-05-21T09:27:53.274Z,3.10
2019-05-21T09:30:25.810Z,3.53
2019-05-21T09:32:58.108Z,3.30
2019-05-21T09:35:29.787Z,3.17
2019-05-21T09:38:02.055Z,3.83
2019-05-21T09:40:34.076Z,5.47
2019-05-21T09:43:06.734Z,3.87
2019-05-21T09:45:38.649Z,2.80
2019-05-21T09:48:10.590Z,3.30
2019-05-21T09:50:42.362Z,3.07
2019-05-21T09:53:15.379Z,3.60
2019-05-21T09:55:47.232Z,3.83
2019-05-21T09:58:27.946Z,5.92
2019-05-21T10:01:14.049Z,4.47
2019-05-21T10:03:50.018Z,4.57
2019-05-21T10:06:21.962Z,4.47
2019-05-21T10:08:54.105Z,3.60
2019-05-21T10:11:27.816Z,5.53
2019-05-21T10:14:00.374Z,2.97
2019-05-21T10:16:32.132Z,5.40
2019-05-21T10:19:04.729Z,2.80
2019-05-21T10:21:36.745Z,3.50
2019-05-21T10:24:08.412Z,3.20
2019-05-21T10:26:40.498Z,2.43
2019-05-21T10:29:12.521Z,4.95
2019-05-21T10:31:45.106Z,3.10
2019-05-21T10:34:17.301Z,2.90
2019-05-21T10:36:49.451Z,3.00
2019-05-21T10:39:21.466Z,4.27
2019-05-21T10:41:53.383Z,5.47
2019-05-21T10:44:25.699Z,4.33
2019-05-21T10:46:57.582Z,3.83
2019-05-21T10:49:32.059Z,4.97
2019-05-21T10:52:04.545Z,4.10
2019-05-21T10:54:36.792Z,3.33
2019-05-21T10:57:08.914Z,4.27
2019-05-21T10:59:40.877Z,4.07
2019-05-21T11:02:21.457Z,3.17
2019-05-21T11:04:59.712Z,6.73
2019-05-21T11:07:33.069Z,4.37
2019-05-21T11:10:08.343Z,3.30
2019-05-21T11:12:41.418Z,3.33
2019-05-21T11:15:14.676Z,5.90
2019-05-21T11:18:07.074Z,3.50
2019-05-21T11:20:20.624Z,4.20
2019-05-21T11:22:52.696Z,7.83
2019-05-21T11:25:26.571Z,4.00
2019-05-21T11:27:59.352Z,5.20
2019-05-21T11:30:33.235Z,6.13
2019-05-21T11:33:06.268Z,3.90
2019-05-21T11:35:38.303Z,6.73
2019-05-21T11:38:10.211Z,5.77
2019-05-21T11:40:42.814Z,4.37
2019-05-21T11:43:14.767Z,5.55
2019-05-21T11:45:46.663Z,7.27
2019-05-21T11:48:18.979Z,6.08
2019-05-21T11:50:51.277Z,4.30
2019-05-21T11:53:22.902Z,5.17
2019-05-21T11:55:54.975Z,6.17
2019-05-21T11:58:27.188Z,4.10
2019-05-21T12:00:59.223Z,7.20
2019-05-21T12:03:30.957Z,6.67
2019-05-21T12:06:02.696Z,4.90
2019-05-21T12:08:36.737Z,4.57
2019-05-21T12:11:08.895Z,4.47
2019-05-21T12:13:41.052Z,4.73
2019-05-21T12:16:12.932Z,4.60
2019-05-21T12:18:44.847Z,4.40
2019-05-21T12:21:17.233Z,5.13
2019-05-21T12:23:49.008Z,6.77
2019-05-21T12:26:20.969Z,5.08
2019-05-21T12:28:53.227Z,4.50
2019-05-21T12:31:25.258Z,4.70
2019-05-21T12:33:57.170Z,5.03
2019-05-21T12:36:29.081Z,5.00
2019-05-21T12:39:13.589Z,6.00
2019-05-21T12:41:35.072Z,6.27
2019-05-21T12:44:07.285Z,6.83
2019-05-21T12:46:39.023Z,6.37
2019-05-21T12:49:10.757Z,6.67
2019-05-21T12:51:44.978Z,6.03
2019-05-21T12:54:16.789Z,6.80
2019-05-21T12:56:48.589Z,6.43
2019-05-21T12:59:20.662Z,6.60
2019-05-21T13:01:52.699Z,6.17
2019-05-21T13:04:25.210Z,7.80
2019-05-21T13:06:57.472Z,6.90
2019-05-21T13:09:33.019Z,7.50
2019-05-21T13:12:03.741Z,7.50
2019-05-21T13:14:37.407Z,8.83
2019-05-21T13:17:09.027Z,8.00
2019-05-21T13:19:41.061Z,8.47
2019-05-21T13:22:12.875Z,8.40
2019-05-21T13:24:44.804Z,8.30
2019-05-21T13:27:16.950Z,7.97
2019-05-21T13:29:49.093Z,8.73
2019-05-21T13:32:21.338Z,9.53
2019-05-21T13:34:53.736Z,9.23
2019-05-21T13:37:25.607Z,10.47
2019-05-21T13:39:58.467Z,11.00
2019-05-21T13:42:30.205Z,20.93
2019-05-21T13:45:02.675Z,11.30
2019-05-21T13:47:36.012Z,12.75
2019-05-21T13:50:08.108Z,18.70
2019-05-21T13:52:39.936Z,16.67
2019-05-21T13:55:12.423Z,11.13
2019-05-21T13:57:44.227Z,10.67
2019-05-21T14:00:21.663Z,18.17
2019-05-21T14:02:53.685Z,9.97
2019-05-21T14:05:25.757Z,9.73
2019-05-21T14:07:58.291Z,7.57
2019-05-21T14:10:30.515Z,7.63
2019-05-21T14:13:02.749Z,9.00
2019-05-21T14:15:35.033Z,9.80
2019-05-21T14:18:07.264Z,10.03
2019-05-21T14:20:39.447Z,7.43
2019-05-21T14:23:11.795Z,8.08
2019-05-21T14:25:44.513Z,7.13
2019-05-21T14:28:16.439Z,10.50
2019-05-21T14:30:48.779Z,8.17
2019-05-21T14:33:20.930Z,9.23
2019-05-21T14:35:53.052Z,8.03
2019-05-21T14:38:24.788Z,8.00
2019-05-21T14:40:56.540Z,7.53
2019-05-21T14:43:29.478Z,8.43
2019-05-21T14:46:01.146Z,7.80
2019-05-21T14:48:32.876Z,8.23
2019-05-21T14:51:05.499Z,9.30
2019-05-21T14:53:37.498Z,7.23
2019-05-21T14:56:09.430Z,7.57
2019-05-21T14:58:41.191Z,8.03
2019-05-21T15:01:12.979Z,8.17
2019-05-21T15:03:44.773Z,8.03
2019-05-21T15:06:17.533Z,9.20
2019-05-21T15:08:50.374Z,7.50
2019-05-21T15:11:23.819Z,8.08
2019-05-21T15:13:57.516Z,8.63
2019-05-21T15:16:29.994Z,7.10
2019-05-21T15:19:05.120Z,8.53
2019-05-21T15:21:49.011Z,6.57
2019-05-21T15:24:21.540Z,6.40
2019-05-21T15:26:53.508Z,6.47
2019-05-21T15:29:30.658Z,7.60
2019-05-21T15:32:05.063Z,7.50
2019-05-21T15:34:37.919Z,8.00
2019-05-21T15:37:11.374Z,8.83
2019-05-21T15:39:46.466Z,8.53
2019-05-21T15:42:19.660Z,9.60
2019-05-21T15:44:51.802Z,8.27
2019-05-21T15:47:27.460Z,9.60
2019-05-21T15:50:01.265Z,9.37
2019-05-21T15:52:33.523Z,9.80
2019-05-21T15:55:07.819Z,10.17
2019-05-21T15:57:42.640Z,10.80
2019-05-21T16:00:17.959Z,11.70
2019-05-21T16:02:49.751Z,11.10
2019-05-21T16:05:21.454Z,11.77
2019-05-21T16:07:54.406Z,12.00
2019-05-21T16:10:28.019Z,11.80
2019-05-21T16:13:00.374Z,12.90
2019-05-21T16:15:32.573Z,12.10
2019-05-21T16:18:05.076Z,13.07
2019-05-21T16:20:42.101Z,12.97
2019-05-21T16:23:12.545Z,14.15
2019-05-21T16:25:46.964Z,12.23
2019-05-21T16:28:19.193Z,14.15
2019-05-21T16:30:51.395Z,14.10
2019-05-21T16:33:24.773Z,11.60
2019-05-21T16:35:57.510Z,11.83
2019-05-21T16:38:30.533Z,10.13
2019-05-21T16:41:02.493Z,9.93
2019-05-21T16:43:34.529Z,9.10
2019-05-21T16:46:06.074Z,9.23
2019-05-21T16:48:37.702Z,8.63
2019-05-21T16:51:13.528Z,8.78
2019-05-21T16:53:47.821Z,8.97
2019-05-21T16:56:20.595Z,8.78
2019-05-21T16:58:53.413Z,9.10
2019-05-21T17:01:27.208Z,8.83
2019-05-21T17:04:02.446Z,7.90
2019-05-21T17:06:35.799Z,7.77
2019-05-21T17:09:11.948Z,8.10
2019-05-21T17:11:59.000Z,7.73
2019-05-21T17:14:21.259Z,7.62
2019-05-21T17:16:53.893Z,8.70
2019-05-21T17:19:27.612Z,8.97
2019-05-21T17:21:59.939Z,8.37
2019-05-21T17:24:31.873Z,7.73
2019-05-21T17:27:03.581Z,8.37
2019-05-21T17:29:35.803Z,8.20
2019-05-21T17:32:08.203Z,8.40
2019-05-21T17:34:40.957Z,8.87
2019-05-21T17:37:13.835Z,8.33
2019-05-21T17:39:47.333Z,8.20
2019-05-21T17:42:20.353Z,8.30
2019-05-21T17:44:53.745Z,7.30
2019-05-21T17:47:26.938Z,7.53
2019-05-21T17:50:00.442Z,7.90
2019-05-21T17:52:32.785Z,8.03
2019-05-21T17:55:06.504Z,7.77
2019-05-21T17:57:41.462Z,8.03
2019-05-21T18:00:18.485Z,8.73
2019-05-21T18:02:52.669Z,9.73
2019-05-21T18:05:30.484Z,8.43
2019-05-21T18:08:05.561Z,8.70
2019-05-21T18:10:45.710Z,8.87
2019-05-21T18:13:20.540Z,8.83
2019-05-21T18:15:56.992Z,9.03
2019-05-21T18:18:30.402Z,9.23
2019-05-21T18:21:05.562Z,8.63
2019-05-21T18:23:39.026Z,9.67
2019-05-21T18:26:11.397Z,10.13
2019-05-21T18:28:44.364Z,9.37
2019-05-21T18:31:18.553Z,10.15
2019-05-21T18:33:50.998Z,10.10
2019-05-21T18:36:24.263Z,8.63
2019-05-21T18:38:58.584Z,8.20
2019-05-21T18:41:32.521Z,8.23
2019-05-21T18:44:07.609Z,8.50
2019-05-21T18:46:41.285Z,7.87
2019-05-21T18:49:14.042Z,9.13
2019-05-21T18:51:46.930Z,7.33
2019-05-21T18:54:19.499Z,6.72
2019-05-21T18:56:52.778Z,6.47
2019-05-21T18:59:26.618Z,7.10
2019-05-21T19:02:00.096Z,6.10
2019-05-21T19:04:32.815Z,6.87
2019-05-21T19:07:10.695Z,7.83
2019-05-21T19:09:41.743Z,7.63
2019-05-21T19:12:14.064Z,6.97
2019-05-21T19:14:48.915Z,7.83
2019-05-21T19:17:34.803Z,7.70
2019-05-21T19:19:55.672Z,9.77
2019-05-21T19:22:28.121Z,8.70
2019-05-21T19:25:04.362Z,7.90
2019-05-21T19:27:38.212Z,8.07
2019-05-21T19:30:12.919Z,8.13
2019-05-21T19:32:46.652Z,9.27
2019-05-21T19:35:18.636Z,7.67
2019-05-21T19:37:50.235Z,7.73
2019-05-21T19:40:23.388Z,7.58
2019-05-21T19:42:55.832Z,7.73
2019-05-21T19:45:29.702Z,7.00
2019-05-21T19:48:01.305Z,7.20
2019-05-21T19:50:33.606Z,6.40
2019-05-21T19:53:06.494Z,6.17
2019-05-21T19:55:41.092Z,6.00
2019-05-21T19:58:13.041Z,6.45
2019-05-21T20:00:53.890Z,6.63
2019-05-21T20:03:26.891Z,6.33
2019-05-21T20:05:59.290Z,7.23
2019-05-21T20:08:31.356Z,7.60
2019-05-21T20:11:04.009Z,7.67
2019-05-21T20:13:35.798Z,7.60
2019-05-21T20:16:08.094Z,8.03
2019-05-21T20:18:40.872Z,7.43
2019-05-21T20:21:14.230Z,8.70
2019-05-21T20:23:47.044Z,8.68
2019-05-21T20:26:21.568Z,9.07
2019-05-21T20:28:53.518Z,9.63
2019-05-21T20:31:25.605Z,9.60
2019-05-21T20:33:58.024Z,10.13
2019-05-21T20:36:30.183Z,8.30
2019-05-21T20:39:02.278Z,8.57
2019-05-21T20:41:37.049Z,8.87
2019-05-21T20:44:12.091Z,8.48
2019-05-21T20:46:44.159Z,9.18
2019-05-21T20:49:16.966Z,8.10
2019-05-21T20:51:48.850Z,8.90
2019-05-21T20:54:21.744Z,8.68
2019-05-21T20:56:54.833Z,8.00
2019-05-21T20:59:27.271Z,7.73
2019-05-21T21:01:59.995Z,7.70
2019-05-21T21:04:32.366Z,7.00
2019-05-21T21:07:05.362Z,6.43
2019-05-21T21:09:37.968Z,6.53
2019-05-21T21:12:11.686Z,6.28
2019-05-21T21:14:45.160Z,5.83
2019-05-21T21:17:17.084Z,5.50
2019-05-21T21:19:49.239Z,5.50
2019-05-21T21:22:21.080Z,5.42
2019-05-21T21:24:52.863Z,5.23
2019-05-21T21:27:26.308Z,5.63
2019-05-21T21:29:58.124Z,6.15
2019-05-21T21:32:30.001Z,6.10
2019-05-21T21:35:02.118Z,5.53
2019-05-21T21:37:36.651Z,5.53
2019-05-21T21:40:11.979Z,5.70
2019-05-21T21:42:44.785Z,5.07
2019-05-21T21:45:16.724Z,5.10
2019-05-21T21:47:49.232Z,4.57
2019-05-21T21:50:21.677Z,5.05
2019-05-21T21:52:54.457Z,4.70
2019-05-21T21:55:26.587Z,5.17
2019-05-21T21:57:58.626Z,4.90
2019-05-21T22:01:01.106Z,4.70
2019-05-21T22:03:37.082Z,4.40
2019-05-21T22:06:11.988Z,4.40
2019-05-21T22:08:44.556Z,4.57
2019-05-21T22:11:18.445Z,4.22
2019-05-21T22:13:50.555Z,3.70
2019-05-21T22:16:23.881Z,5.05
2019-05-21T22:18:55.855Z,4.33
2019-05-21T22:21:28.365Z,4.27
2019-05-21T22:24:00.251Z,3.90
2019-05-21T22:26:32.812Z,4.17
2019-05-21T22:29:04.778Z,4.00
2019-05-21T22:31:36.932Z,4.17
2019-05-21T22:34:09.201Z,4.60
2019-05-21T22:36:40.955Z,4.40
2019-05-21T22:39:24.120Z,4.25
2019-05-21T22:41:57.964Z,4.13
2019-05-21T22:44:30.034Z,4.20
2019-05-21T22:47:05.280Z,3.95
2019-05-21T22:49:37.204Z,4.20
2019-05-21T22:52:09.012Z,3.77
2019-05-21T22:54:42.367Z,3.77
2019-05-21T22:57:14.818Z,4.53
2019-05-21T22:59:47.229Z,3.90
2019-05-21T23:02:24.065Z,3.90
2019-05-21T23:04:56.440Z,4.50
2019-05-21T23:07:27.969Z,3.83
2019-05-21T23:10:00.062Z,3.73
2019-05-21T23:12:32.311Z,4.00
2019-05-21T23:15:05.088Z,4.20
2019-05-21T23:17:39.229Z,6.63
2019-05-21T23:20:30.363Z,4.30
2019-05-21T23:23:03.697Z,6.57
2019-05-21T23:25:36.626Z,4.30
2019-05-21T23:28:08.815Z,4.30
2019-05-21T23:30:40.736Z,4.50
2019-05-21T23:33:14.395Z,4.03
2019-05-21T23:35:46.372Z,4.50
2019-05-21T23:38:19.961Z,4.30
2019-05-21T23:40:52.173Z,4.60
2019-05-21T23:43:24.931Z,4.60
2019-05-21T23:45:57.347Z,4.65
2019-05-21T23:48:29.852Z,5.33
2019-05-21T23:51:01.712Z,4.97
2019-05-21T23:53:34.264Z,5.53
2019-05-21T23:56:06.278Z,4.80
2019-05-21T23:58:38.081Z,5.78
